KGVT/GVT METAR and TAF weather

Enter ICAO airport designator
Station Type Date Time Source
KGVT METAR 2020/08/14 16:50 UTC NOAA

KGVT 141650Z AUTO 13003KT CLR 35/20 A2994 RMK AO2 PWINO


Station Type Date Time Source
KGVT Decoded METAR 2020/08/14 16:50 UTC NOAA

Greenville / Majors, TX, United States (KGVT) 33-04N 096-04W
Aug 14, 2020 - 12:50 PM EDT / 2020.08.14 1650 UTC
Wind: from the SE (130 degrees) at 3 MPH (3 KT):0
Sky conditions: clear
Temperature: 95 F (35 C)
Heat index: 99.5 F (37.5 C):1
Dew Point: 68 F (20 C)
Relative Humidity: 41%
Pressure (altimeter): 29.94 in. Hg (1013 hPa)
ob: KGVT 141650Z AUTO 13003KT CLR 35/20 A2994 RMK AO2 PWINO
cycle: 17

Station Type Date Time Source
KGVT TAF UTC NOAA

Error!

Example: see airport list